Time,TemperatureF,DewpointF,PressureIn,WindDirection,WindDirectionDegrees,WindSpeedMPH,WindSpeedGustMPH,Humidity,HourlyPrecipIn,Conditions,Clouds,dailyrainin,SoftwareType,DateUTC
2013-02-20 00:01:00,34.0,23.0,29.60,SSW,205,10.0,20.0,64,0.00,,,0.00,,2013-02-20 07:01:00,
2013-02-20 00:11:00,34.0,23.0,29.60,SSW,205,10.0,20.0,64,0.00,,,0.00,,2013-02-20 07:11:00,
2013-02-20 00:21:00,34.0,23.0,29.59,SW,216,9.0,20.0,63,0.00,,,0.00,,2013-02-20 07:21:00,
2013-02-20 00:31:00,33.0,21.0,29.61,SSW,213,7.0,20.0,62,0.00,,,0.00,,2013-02-20 07:31:00,
2013-02-20 00:41:00,33.0,21.0,29.61,SSW,213,7.0,20.0,62,0.00,,,0.00,,2013-02-20 07:41:00,
2013-02-20 00:52:00,33.0,21.0,29.61,SW,217,9.0,17.0,60,0.00,,,0.00,,2013-02-20 07:52:00,
2013-02-20 01:01:00,33.0,21.0,29.61,SW,217,9.0,17.0,60,0.00,,,0.00,,2013-02-20 08:01:00,
2013-02-20 01:11:00,33.0,21.0,29.61,SW,217,9.0,17.0,60,0.00,,,0.00,,2013-02-20 08:11:00,
2013-02-20 01:21:00,32.0,19.0,29.60,SSW,209,13.0,23.0,59,0.00,,,0.00,,2013-02-20 08:21:00,
2013-02-20 01:32:00,32.0,19.0,29.60,SW,214,10.0,23.0,58,0.00,,,0.00,,2013-02-20 08:32:00,
2013-02-20 01:42:00,32.0,19.0,29.60,SW,214,10.0,23.0,58,0.00,,,0.00,,2013-02-20 08:42:00,
2013-02-20 01:52:00,32.0,19.0,29.60,SW,217,8.0,16.0,57,0.00,,,0.00,,2013-02-20 08:52:00,
2013-02-20 02:01:00,32.0,19.0,29.60,SW,217,8.0,16.0,57,0.00,,,0.00,,2013-02-20 09:01:00,
2013-02-20 02:11:00,32.0,19.0,29.60,SW,217,8.0,16.0,57,0.00,,,0.00,,2013-02-20 09:11:00,
2013-02-20 02:21:00,31.0,18.0,29.60,SW,216,11.0,19.0,57,0.00,,,0.00,,2013-02-20 09:21:00,
2013-02-20 02:31:00,32.0,21.0,29.58,SSW,212,7.0,18.0,64,0.00,,,0.00,,2013-02-20 09:31:00,
2013-02-20 02:41:00,32.0,21.0,29.58,SSW,212,7.0,18.0,64,0.00,,,0.00,,2013-02-20 09:41:00,
2013-02-20 02:51:00,32.0,21.0,29.58,SSW,212,7.0,18.0,64,0.00,,,0.00,,2013-02-20 09:51:00,
2013-02-20 03:01:00,31.0,22.0,29.57,SSW,210,6.0,17.0,68,0.00,,,0.00,,2013-02-20 10:01:00,
2013-02-20 03:12:00,31.0,22.0,29.57,SSW,210,6.0,17.0,68,0.00,,,0.00,,2013-02-20 10:12:00,
2013-02-20 03:21:00,31.0,23.0,29.56,SSW,210,6.0,15.0,71,0.00,,,0.00,,2013-02-20 10:21:00,
2013-02-20 03:31:00,31.0,23.0,29.56,SSW,213,6.0,13.0,72,0.00,,,0.00,,2013-02-20 10:31:00,
2013-02-20 03:41:00,31.0,23.0,29.56,SSW,213,6.0,13.0,72,0.00,,,0.00,,2013-02-20 10:41:00,
2013-02-20 03:51:00,30.0,24.0,29.55,SW,220,2.0,12.0,79,0.00,,,0.00,,2013-02-20 10:51:00,
2013-02-20 04:01:00,30.0,25.0,29.55,SW,217,3.0,10.0,81,0.00,,,0.00,,2013-02-20 11:01:00,
2013-02-20 04:11:00,29.0,26.0,29.55,SSW,213,4.0,10.0,87,0.00,,,0.00,,2013-02-20 11:11:00,
2013-02-20 04:21:00,29.0,26.0,29.55,SSW,213,4.0,10.0,87,0.00,,,0.00,,2013-02-20 11:21:00,
2013-02-20 04:31:00,29.0,26.0,29.54,SW,227,1.0,6.0,90,0.00,,,0.00,,2013-02-20 11:31:00,
2013-02-20 04:41:00,29.0,26.0,29.54,SW,227,1.0,6.0,90,0.00,,,0.00,,2013-02-20 11:41:00,
2013-02-20 04:52:00,28.0,26.0,29.54,SSW,207,2.0,6.0,91,0.00,,,0.00,,2013-02-20 11:52:00,
2013-02-20 05:01:00,28.0,26.0,29.56,SW,220,4.0,10.0,92,0.00,,,0.00,,2013-02-20 12:01:00,
2013-02-20 05:11:00,28.0,26.0,29.56,SW,220,4.0,10.0,92,0.00,,,0.00,,2013-02-20 12:11:00,
2013-02-20 05:21:00,28.0,26.0,29.56,SW,228,4.0,9.0,92,0.00,,,0.00,,2013-02-20 12:21:00,
2013-02-20 05:31:00,28.0,26.0,29.57,SSW,207,6.0,9.0,92,0.00,,,0.00,,2013-02-20 12:31:00,
2013-02-20 05:41:00,28.0,26.0,29.57,SSW,207,6.0,9.0,92,0.00,,,0.00,,2013-02-20 12:41:00,
2013-02-20 05:52:00,28.0,26.0,29.57,SW,220,7.0,14.0,91,0.00,,,0.00,,2013-02-20 12:52:00,
2013-02-20 06:01:00,28.0,26.0,29.57,SW,220,7.0,14.0,91,0.00,,,0.00,,2013-02-20 13:01:00,
2013-02-20 06:11:00,28.0,26.0,29.57,SW,220,7.0,14.0,91,0.00,,,0.00,,2013-02-20 13:11:00,
2013-02-20 06:22:00,27.0,25.0,29.56,SW,233,5.0,13.0,91,0.00,,,0.00,,2013-02-20 13:22:00,
2013-02-20 06:31:00,27.0,25.0,29.55,SW,221,5.0,11.0,92,0.00,,,0.00,,2013-02-20 13:31:00,
2013-02-20 06:42:00,27.0,25.0,29.55,SW,221,5.0,11.0,92,0.00,,,0.00,,2013-02-20 13:42:00,
2013-02-20 06:51:00,27.0,25.0,29.55,SW,217,6.0,13.0,92,0.00,,,0.00,,2013-02-20 13:51:00,
2013-02-20 07:01:00,27.0,25.0,29.54,SSW,213,8.0,16.0,91,0.00,,,0.00,,2013-02-20 14:01:00,
2013-02-20 07:11:00,27.0,25.0,29.54,SSW,213,8.0,16.0,91,0.00,,,0.00,,2013-02-20 14:11:00,
2013-02-20 07:21:00,27.0,24.0,29.55,SW,225,5.0,16.0,90,0.00,,,0.00,,2013-02-20 14:21:00,
2013-02-20 07:32:00,28.0,25.0,29.55,SW,231,5.0,13.0,90,0.00,,,0.00,,2013-02-20 14:32:00,
2013-02-20 07:42:00,28.0,25.0,29.55,SW,231,5.0,13.0,90,0.00,,,0.00,,2013-02-20 14:42:00,
2013-02-20 07:52:00,28.0,25.0,29.55,SW,231,5.0,13.0,90,0.00,,,0.00,,2013-02-20 14:52:00,
2013-02-20 08:01:00,27.0,25.0,29.55,SSW,203,4.0,11.0,92,0.00,,,0.00,,2013-02-20 15:01:00,
2013-02-20 08:11:00,27.0,25.0,29.55,SW,228,4.0,14.0,91,0.00,,,0.00,,2013-02-20 15:11:00,
2013-02-20 08:22:00,27.0,25.0,29.55,SW,228,4.0,14.0,91,0.00,,,0.00,,2013-02-20 15:22:00,
2013-02-20 08:31:00,27.0,25.0,29.56,SW,231,8.0,12.0,92,0.00,,,0.00,,2013-02-20 15:31:00,
2013-02-20 08:41:00,27.0,25.0,29.56,SW,233,5.0,12.0,91,0.00,,,0.00,,2013-02-20 15:41:00,
2013-02-20 08:51:00,27.0,25.0,29.56,SW,233,5.0,12.0,91,0.00,,,0.00,,2013-02-20 15:51:00,
2013-02-20 09:01:00,27.0,25.0,29.56,SW,233,5.0,12.0,91,0.00,,,0.00,,2013-02-20 16:01:00,
2013-02-20 09:11:00,27.0,25.0,29.56,SW,233,5.0,12.0,91,0.00,,,0.00,,2013-02-20 16:11:00,
2013-02-20 09:21:00,27.0,23.0,29.58,WSW,251,7.0,16.0,85,0.00,,,0.00,,2013-02-20 16:21:00,
2013-02-20 09:32:00,28.0,23.0,29.58,WSW,246,7.0,14.0,80,0.00,,,0.00,,2013-02-20 16:32:00,
2013-02-20 09:41:00,28.0,23.0,29.58,WSW,246,7.0,14.0,80,0.00,,,0.00,,2013-02-20 16:41:00,
2013-02-20 09:51:00,28.0,23.0,29.58,WSW,246,7.0,14.0,80,0.00,,,0.00,,2013-02-20 16:51:00,
2013-02-20 10:01:00,28.0,23.0,29.58,WSW,246,7.0,14.0,80,0.00,,,0.00,,2013-02-20 17:01:00,
2013-02-20 10:11:00,29.0,24.0,29.56,WSW,237,3.0,13.0,80,0.00,,,0.00,,2013-02-20 17:11:00,
2013-02-20 10:21:00,29.0,24.0,29.56,WSW,237,3.0,13.0,80,0.00,,,0.00,,2013-02-20 17:21:00,
2013-02-20 10:32:00,29.0,24.0,29.56,WSW,237,3.0,13.0,80,0.00,,,0.00,,2013-02-20 17:32:00,
2013-02-20 10:42:00,29.0,24.0,29.56,WSW,237,3.0,13.0,80,0.00,,,0.00,,2013-02-20 17:42:00,
2013-02-20 10:52:00,30.0,23.0,29.56,West,265,1.0,8.0,75,0.01,,,0.01,,2013-02-20 17:52:00,
2013-02-20 11:02:00,30.0,22.0,29.57,SW,232,5.0,12.0,72,0.01,,,0.01,,2013-02-20 18:02:00,
2013-02-20 11:11:00,30.0,22.0,29.57,SW,232,5.0,12.0,72,0.01,,,0.01,,2013-02-20 18:11:00,
2013-02-20 11:21:00,30.0,23.0,29.58,SSW,195,1.0,8.0,75,0.02,,,0.02,,2013-02-20 18:21:00,
2013-02-20 11:31:00,31.0,24.0,29.58,South,174,2.0,7.0,75,0.02,,,0.02,,2013-02-20 18:31:00,
2013-02-20 11:41:00,31.0,24.0,29.58,South,174,2.0,7.0,75,0.02,,,0.02,,2013-02-20 18:41:00,
2013-02-20 11:52:00,30.0,23.0,29.59,SSE,159,2.0,7.0,74,0.03,,,0.03,,2013-02-20 18:52:00,
2013-02-20 12:01:00,31.0,24.0,29.59,South,170,1.0,4.0,75,0.02,,,0.03,,2013-02-20 19:01:00,
2013-02-20 12:11:00,31.0,24.0,29.59,South,170,1.0,4.0,75,0.02,,,0.03,,2013-02-20 19:11:00,
2013-02-20 12:21:00,31.0,23.0,29.58,North,0,0.0,3.0,73,0.01,,,0.03,,2013-02-20 19:21:00,
2013-02-20 12:31:00,31.0,25.0,29.58,SSW,211,3.0,6.0,77,0.02,,,0.05,,2013-02-20 19:31:00,
2013-02-20 12:41:00,31.0,25.0,29.58,SSW,211,3.0,6.0,77,0.02,,,0.05,,2013-02-20 19:41:00,
2013-02-20 12:51:00,30.0,25.0,29.59,SSW,199,1.0,6.0,82,0.02,,,0.05,,2013-02-20 19:51:00,
2013-02-20 13:01:00,30.0,26.0,29.59,North,0,0.0,8.0,86,0.03,,,0.06,,2013-02-20 20:01:00,
2013-02-20 13:11:00,30.0,26.0,29.58,SSW,210,2.0,5.0,85,0.02,,,0.06,,2013-02-20 20:11:00,
2013-02-20 13:21:00,30.0,26.0,29.58,SSW,210,2.0,5.0,85,0.02,,,0.06,,2013-02-20 20:21:00,
2013-02-20 13:31:00,29.0,24.0,29.56,WSW,237,6.0,12.0,81,0.03,,,0.07,,2013-02-20 20:31:00,
2013-02-20 13:41:00,29.0,24.0,29.56,SW,227,5.0,12.0,82,0.02,,,0.07,,2013-02-20 20:41:00,
2013-02-20 13:51:00,29.0,24.0,29.56,SW,227,5.0,12.0,82,0.02,,,0.07,,2013-02-20 20:51:00,
2013-02-20 14:01:00,29.0,25.0,29.56,SW,225,5.0,10.0,84,0.01,,,0.07,,2013-02-20 21:01:00,
2013-02-20 14:11:00,29.0,25.0,29.54,SW,225,4.0,9.0,84,0.01,,,0.07,,2013-02-20 21:11:00,
2013-02-20 14:21:00,29.0,25.0,29.54,SW,225,4.0,9.0,84,0.01,,,0.07,,2013-02-20 21:21:00,
2013-02-20 14:31:00,29.0,25.0,29.55,WSW,239,4.0,9.0,86,0.02,,,0.08,,2013-02-20 21:31:00,
2013-02-20 14:41:00,29.0,25.0,29.55,WSW,239,4.0,9.0,86,0.02,,,0.08,,2013-02-20 21:41:00,
2013-02-20 14:52:00,29.0,25.0,29.56,SW,217,3.0,14.0,83,0.01,,,0.08,,2013-02-20 21:52:00,
2013-02-20 15:01:00,28.0,22.0,29.57,SSW,206,5.0,14.0,79,0.01,,,0.08,,2013-02-20 22:01:00,
2013-02-20 15:11:00,27.0,21.0,29.58,SW,221,9.0,17.0,78,0.01,,,0.08,,2013-02-20 22:11:00,
2013-02-20 15:21:00,27.0,21.0,29.58,SW,221,9.0,17.0,78,0.01,,,0.08,,2013-02-20 22:21:00,
2013-02-20 15:31:00,27.0,21.0,29.58,SW,217,7.0,16.0,79,0.00,,,0.08,,2013-02-20 22:31:00,
2013-02-20 15:41:00,27.0,21.0,29.58,SW,217,7.0,16.0,79,0.00,,,0.08,,2013-02-20 22:41:00,
2013-02-20 15:51:00,27.0,22.0,29.59,SW,226,7.0,17.0,82,0.00,,,0.08,,2013-02-20 22:51:00,
2013-02-20 16:01:00,26.0,22.0,29.57,SSW,208,6.0,13.0,85,0.00,,,0.08,,2013-02-20 23:01:00,
2013-02-20 16:12:00,27.0,24.0,29.58,SW,230,4.0,12.0,87,0.00,,,0.08,,2013-02-20 23:12:00,
2013-02-20 16:21:00,27.0,24.0,29.58,SW,230,4.0,12.0,87,0.00,,,0.08,,2013-02-20 23:21:00,
2013-02-20 16:31:00,27.0,23.0,29.59,WSW,238,4.0,10.0,86,0.00,,,0.08,,2013-02-20 23:31:00,
2013-02-20 16:42:00,27.0,23.0,29.59,WSW,238,4.0,10.0,86,0.00,,,0.08,,2013-02-20 23:42:00,
2013-02-20 16:52:00,27.0,23.0,29.60,SW,216,5.0,12.0,85,0.01,,,0.09,,2013-02-20 23:52:00,
2013-02-20 17:02:00,27.0,23.0,29.60,SW,216,5.0,12.0,85,0.01,,,0.09,,2013-02-21 00:02:00,
2013-02-20 17:11:00,27.0,23.0,29.60,SW,216,5.0,12.0,85,0.01,,,0.09,,2013-02-21 00:11:00,
2013-02-20 17:21:00,26.0,23.0,29.60,SW,222,4.0,15.0,87,0.01,,,0.09,,2013-02-21 00:21:00,
2013-02-20 17:31:00,26.0,23.0,29.61,WSW,255,3.0,12.0,87,0.01,,,0.09,,2013-02-21 00:31:00,
2013-02-20 17:42:00,26.0,23.0,29.61,WSW,255,3.0,12.0,87,0.01,,,0.09,,2013-02-21 00:42:00,
2013-02-20 17:52:00,25.0,21.0,29.60,SW,215,8.0,15.0,85,0.00,,,0.09,,2013-02-21 00:52:00,
2013-02-20 18:01:00,25.0,21.0,29.60,SW,226,8.0,16.0,85,0.00,,,0.09,,2013-02-21 01:01:00,
2013-02-20 18:11:00,25.0,21.0,29.60,SW,226,8.0,16.0,85,0.00,,,0.09,,2013-02-21 01:11:00,
2013-02-20 18:21:00,25.0,21.0,29.61,SW,235,5.0,18.0,83,0.00,,,0.09,,2013-02-21 01:21:00,
2013-02-20 18:31:00,25.0,20.0,29.62,WSW,237,8.0,16.0,82,0.00,,,0.09,,2013-02-21 01:31:00,
2013-02-20 18:41:00,25.0,20.0,29.62,WSW,237,8.0,16.0,82,0.00,,,0.09,,2013-02-21 01:41:00,
2013-02-20 18:52:00,24.0,20.0,29.62,SW,231,9.0,18.0,84,0.00,,,0.09,,2013-02-21 01:52:00,
2013-02-20 19:01:00,24.0,20.0,29.63,SW,231,8.0,19.0,84,0.00,,,0.09,,2013-02-21 02:01:00,
2013-02-20 19:11:00,24.0,20.0,29.63,SW,231,8.0,19.0,84,0.00,,,0.09,,2013-02-21 02:11:00,
2013-02-20 19:21:00,24.0,20.0,29.64,WSW,244,8.0,16.0,83,0.00,,,0.09,,2013-02-21 02:21:00,
2013-02-20 19:32:00,23.0,18.0,29.65,WSW,246,9.0,16.0,82,0.00,,,0.09,,2013-02-21 02:32:00,
2013-02-20 19:42:00,23.0,18.0,29.65,WSW,246,9.0,16.0,82,0.00,,,0.09,,2013-02-21 02:42:00,
2013-02-20 19:51:00,23.0,18.0,29.65,WSW,246,9.0,16.0,82,0.00,,,0.09,,2013-02-21 02:51:00,
2013-02-20 20:01:00,23.0,18.0,29.66,WSW,241,8.0,16.0,81,0.00,,,0.09,,2013-02-21 03:01:00,
2013-02-20 20:11:00,23.0,18.0,29.66,WSW,241,8.0,16.0,81,0.00,,,0.09,,2013-02-21 03:11:00,
2013-02-20 20:21:00,24.0,18.0,29.65,WSW,244,9.0,16.0,76,0.00,,,0.09,,2013-02-21 03:21:00,
2013-02-20 20:31:00,24.0,18.0,29.65,WSW,244,9.0,16.0,76,0.00,,,0.09,,2013-02-21 03:31:00,
2013-02-20 20:41:00,24.0,18.0,29.65,WSW,244,9.0,16.0,76,0.00,,,0.09,,2013-02-21 03:41:00,
2013-02-20 20:51:00,23.0,17.0,29.64,SW,220,6.0,18.0,78,0.00,,,0.09,,2013-02-21 03:51:00,
2013-02-20 21:01:00,23.0,17.0,29.65,SW,233,8.0,18.0,78,0.00,,,0.09,,2013-02-21 04:01:00,
2013-02-20 21:11:00,23.0,17.0,29.65,SW,233,8.0,18.0,78,0.00,,,0.09,,2013-02-21 04:11:00,
2013-02-20 21:21:00,23.0,17.0,29.66,SSW,211,5.0,18.0,79,0.00,,,0.09,,2013-02-21 04:21:00,
2013-02-20 21:31:00,24.0,18.0,29.66,SSW,213,10.0,17.0,79,0.00,,,0.09,,2013-02-21 04:31:00,
2013-02-20 21:42:00,24.0,18.0,29.66,SSW,213,10.0,17.0,79,0.00,,,0.09,,2013-02-21 04:42:00,
2013-02-20 21:52:00,24.0,18.0,29.66,SSW,213,10.0,17.0,79,0.00,,,0.09,,2013-02-21 04:52:00,
2013-02-20 22:02:00,22.0,17.0,29.69,SSW,202,7.0,18.0,82,0.00,,,0.09,,2013-02-21 05:02:00,
2013-02-20 22:11:00,22.0,17.0,29.69,SSW,202,7.0,18.0,82,0.00,,,0.09,,2013-02-21 05:11:00,
2013-02-20 22:22:00,22.0,18.0,29.71,SSW,209,6.0,17.0,84,0.00,,,0.09,,2013-02-21 05:22:00,
2013-02-20 22:33:00,22.0,18.0,29.71,SW,227,6.0,16.0,83,0.00,,,0.09,,2013-02-21 05:33:00,
2013-02-20 22:42:00,22.0,18.0,29.71,SW,227,6.0,16.0,83,0.00,,,0.09,,2013-02-21 05:42:00,
2013-02-20 22:55:00,22.0,18.0,29.72,SW,214,8.0,15.0,83,0.00,,,0.09,,2013-02-21 05:55:00,
2013-02-20 23:01:00,22.0,18.0,29.70,SSW,207,6.0,15.0,84,0.00,,,0.09,,2013-02-21 06:01:00,
2013-02-20 23:11:00,22.0,18.0,29.70,SSW,207,6.0,15.0,84,0.00,,,0.09,,2013-02-21 06:11:00,
2013-02-20 23:21:00,22.0,18.0,29.71,SW,219,5.0,15.0,85,0.00,,,0.09,,2013-02-21 06:21:00,
2013-02-20 23:31:00,23.0,19.0,29.71,SW,219,8.0,19.0,84,0.00,,,0.09,,2013-02-21 06:31:00,
2013-02-20 23:41:00,23.0,19.0,29.72,SSW,209,9.0,18.0,85,0.00,,,0.09,,2013-02-21 06:41:00,
2013-02-20 23:51:00,23.0,19.0,29.72,SSW,209,9.0,18.0,85,0.00,,,0.09,,2013-02-21 06:51:00,